Tiempo atmosférico en la estación meteorológica de Valencia De Alcántara, Cáceres (445 m.)



Fecha
DESCASC
Temp. máxima en grados centígrados (hora)
DESCASC
Temp. mínima en grados centígrados (hora)
DESCASC
Temp. media en grados centígrados
DESCASC
Racha de viento máxima en m/sg (hora)
DESCASC
Velocidad máxima media en intervalos de 10 minutos(hora)
DESCASC
Precipitaciones diarias en mm
DESCASC
Precipitaciones de 00:00 a 06:00 en mm
DESCASC
Precipitaciones de 06:00 a 12:00 en mm
DESCASC
Precipitaciones de 12:00 a 18:00 en mm
DESCASC
Precipitaciones de 18:00 a 24:00 en mm
DESCASC
16-04-2019 22 (19:10) 4.6 (08:00) 13.3 12.78 (16:40) 5.56 (16:40) 0 0 0 0 0
15-04-2019 18.7 (18:30) 11.3 (23:20) 15 12.78 (13:40) 7.5 (13:40) 0.2 0 0 0.2 0
14-04-2019 22.1 (19:50) 13 (00:00) 17.6 6.67 (03:00) 4.17 (00:40) 0 0 0 0 0
13-04-2019 21.1 (15:10) 8.4 (00:00) 14.8 8.61 (18:50) 5.28 (19:00) 0 0 0 0 0
12-04-2019 20.4 (18:30) 4.2 (00:00) 12.3 7.5 (18:00) 3.61 (18:00) 0 0 0 0 0
11-04-2019 18.9 (17:50) 5.4 (00:00) 12.1 9.17 (16:40) 4.17 (19:10) 0 0 0 0 0
10-04-2019 16 (16:00) 7.1 (00:00) 11.5 13.06 (14:50) 7.5 (14:00) 0 0 0 0 0
09-04-2019 15.2 (17:20) 8 (00:00) 11.6 15 (18:50) 9.17 (18:30) 0.6 0 0.6 0 0
08-04-2019 15.3 (14:50) 9.1 (00:00) 12.2 15.28 (16:40) 8.06 (18:10) 1.8 1 0.2 0 0.6
07-04-2019 13.2 (16:50) 7 (00:00) 10.1 13.89 (00:40) 7.22 (00:50) 1.2 0.6 0 0 0.6
06-04-2019 12.4 (16:30) 5.4 (00:00) 8.9 18.61 (16:50) 8.61 (16:20) 5.2 0 1.8 2.8 0.6
05-04-2019 11.8 (16:00) 2.3 (00:00) 7.1 14.72 (08:30) 7.78 (18:40) 5.4 1.4 3.2 0.4 0.4
04-04-2019 15.1 (16:40) 3.2 (00:00) 9.2 11.39 (20:30) 6.39 (19:50) 0.4 0 0 0 0.4
03-04-2019 16.7 (17:30) 6.4 (00:00) 11.6 10 (21:10) 6.11 (21:30) 0 0 0 0 0
02-04-2019 20 (16:40) 6.1 (00:00) 13 9.44 (17:40) 5.28 (18:10) 0.2 0 0 0.2 0
01-04-2019 16.2 (15:20) 9.8 (00:00) 13 8.61 (17:00) 4.72 (17:00) 5 0 1.6 2.6 0.8
31-03-2019 19.8 (18:00) 7 (00:00) 13.4 13.61 (21:40) 7.5 (21:40) 0.2 0 0 0.2 0
30-03-2019 20.1 (16:30) 6.4 (00:00) 13.3 9.17 (23:40) 5.56 (23:50) 0 0 0 0 0
29-03-2019 20 (16:40) 5.7 (00:00) 12.8 8.89 (14:20) 4.44 (11:10) 0 0 0 0 0
28-03-2019 21 (16:40) 4.4 (00:00) 12.7 10.56 (16:00) 5.83 (16:40) 0 0 0 0 0
27-03-2019 20.5 (15:10) 8.9 (00:00) 14.7 11.39 (10:20) 6.94 (09:50) 0 0 0 0 0
26-03-2019 22 (16:10) 8 (00:00) 15 13.89 (18:20) 7.5 (13:00) 0 0 0 0 0
25-03-2019 22.6 (16:40) 6 (00:00) 14.3 11.67 (14:30) 6.67 (16:00) 0 0 0 0 0
24-03-2019 20.9 (17:20) 9.1 (00:00) 15 12.22 (12:00) 6.39 (11:00) 0 0 0 0 0
23-03-2019 20.6 (15:40) 3.9 (00:00) 12.3 11.39 (14:20) 6.39 (14:40) 0 0 0 0 0
22-03-2019 18.1 (17:10) 2.5 (00:00) 10.3 12.22 (15:20) 5.56 (12:50) 0 0 0 0 0
21-03-2019 17.5 (15:40) 2 (00:00) 9.8 9.44 (14:10) 3.89 (14:10) 0 0 0 0 0
20-03-2019 15.7 (17:20) 3.8 (00:00) 9.7 12.5 (15:20) 6.39 (14:00) 0 0 0 0 0
19-03-2019 17.4 (17:10) 2.9 (00:00) 10.1 11.67 (22:30) 6.39 (22:20) 0 0 0 0 0

Gráficas

Temp. máximas Temp. mínimas Temp. medias Precipitaciones Rachas de viento máximas Velocidades máximas media en intervalos de 10 minutos

Datos horarios

Fecha y hora oficial Temperatura (ºC) Velocidad del viento (km/h) Dirección del viento Racha (km/h) Dirección de racha Precipitación (mm) Presión (hPa) Tendencia (hPa) Humedad (%)
2019-04-17 23:00:00 10.8 10 Sur 25 Sur 0 959.1 1.5 87
2019-04-17 22:00:00 10.9 10 Sur 19 Sur 0.2 958.6 1.5 90
2019-04-17 21:00:00 11.1 8 Sur 19 Sur 0 957.9 1.6 88
2019-04-17 20:00:00 11.3 8 Sur 28 Sudeste 0 957.6 0.7 85
2019-04-17 19:00:00 11.4 13 Sur 27 Sur 0.4 957.1 0.2 83
2019-04-17 18:00:00 12.8 12 Sur 32 Sudoeste 0 956.3 -0.2 78
2019-04-17 17:00:00 12.6 15 Sur 36 Sur 0.4 956.9 0.5 77
2019-04-17 16:00:00 12.5 16 Sur 41 Sudoeste 1 956.9 0 84
2019-04-17 15:00:00 13.5 22 Sur 58 Sur 0.8 956.5 -1 84
2019-04-17 14:00:00 16.3 25 Sur 58 Sudeste 0 956.4 -1.3 65
2019-04-17 13:00:00 15.5 26 Sudeste 47 Sur 0 956.9 -1.1 66
2019-04-17 12:00:00 14.4 19 Sudeste 35 Sudeste 0 957.5 -0.5 68
2019-04-17 11:00:00 12.7 18 Este 30 Sudeste 0 957.7 -0.1 72
2019-04-17 10:00:00 10.7 11 Este 18 Este 0 958 0.1 84
2019-04-17 09:00:00 10.4 6 Este 12 Este 0 958 0 86
2019-04-17 08:00:00 10.2 7 Sudeste 17 Sudeste 0 957.8 -0.4 87
2019-04-17 07:00:00 9.8 12 Sudeste 19 Sudeste 0 957.9 -0.8 86
2019-04-17 06:00:00 10.4 12 Sudeste 17 Sur 0 958 -0.5 82
2019-04-17 05:00:00 11.4 8 Sudeste 17 Sur 0 958.2 -0.9 72
2019-04-17 04:00:00 12.5 6 Sudeste 17 Sur 0 958.7 -0.5 62
2019-04-17 03:00:00 13.9 8 Sudeste 29 Sur 0 958.5 -0.8 48
2019-04-17 02:00:00 14.8 14 Sur 32 Sur 0 959.1 -0.9 45
2019-04-17 01:00:00 16.2 14 Sur 30 Sur 0 959.2 -0.1 37
2019-04-17 00:00:00 16.7 10 Sur 22 Sudeste 0 959.3 -0.2 34
2019-04-16 23:00:00 16.5 8 Sur 21 Sur 0 960 0.5 43
2019-04-16 22:00:00 17.7 9 Sur 15 Sur 0 959.3 -0.7 42
2019-04-16 21:00:00 19.4 8 Sur 18 Sudoeste 0 959.5 -1.4 41
2019-04-16 20:00:00 20.8 9 Sur 30 Sudeste 0 959.5 -2.1 37
2019-04-16 19:00:00 21.9 12 Sudeste 33 Sudeste 0 960 -2.9 30
2019-04-16 18:00:00 21.4 16 Sudeste 37 Sudeste 0 960.9 -2.8 31
2019-04-16 17:00:00 20.8 17 Sudeste -- -- 0 961.6 -3 37
2019-04-16 16:00:00 20.3 15 Sudeste 36 Sudeste 0 962.9 -2.4 33
2019-04-16 15:00:00 19.2 14 Sudeste -- -- 0 963.7 -2 38
2019-04-16 14:00:00 17.9 16 Sudeste 32 Sudeste 0 964.6 -1.1 43
2019-04-16 13:00:00 17 13 Sudeste 28 Sudeste 0 965.3 -0.6 48
2019-04-16 12:00:00 15.7 13 Sudeste 24 Sudeste 0 965.7 -0.1 51
2019-04-16 11:00:00 14.4 12 Sudeste 21 Sudeste 0 965.7 0.2 61
2019-04-16 10:00:00 11.4 6 Este 13 Este 0 965.9 0.4 77
2019-04-16 09:00:00 6.1 4 Sur 10 Sudeste 0 965.8 -0.2 89
2019-04-16 08:00:00 4.6 3 Sur 8 Sur 0 965.5 -0.3 89
2019-04-16 07:00:00 5.5 5 Sur 12 Sur 0 965.5 -1 89
2019-04-16 06:00:00 5.7 9 Sur 14 Sudoeste 0 966 -0.8 91
2019-04-16 05:00:00 5.9 6 Sur 11 Sudoeste 0 965.8 -0.8 89
2019-04-16 04:00:00 7.4 5 Sur 11 Este 0 966.5 0.1 87
2019-04-16 03:00:00 8.4 3 Sudoeste 9 Sudeste 0 966.8 0.8 83
2019-04-16 02:00:00 9.9 5 Sur 18 Oeste 0 966.6 1 78
2019-04-16 01:00:00 10.5 7 Sudoeste 23 Sudoeste 0 966.4 1.2 78
2019-04-16 00:00:00 11.3 12 Oeste 19 Oeste 0 966 1.8 78
2019-04-15 23:00:00 11.9 11 Oeste 21 Oeste 0 965.6 2 75
2019-04-15 22:00:00 13.5 13 Oeste 29 Oeste 0 965.2 1.8 69
2019-04-15 21:00:00 15.2 16 Oeste 33 Oeste 0 964.2 1.4 60
2019-04-15 20:00:00 16.7 18 Oeste 36 Oeste 0 963.6 1 48
2019-04-15 19:00:00 17.9 19 Oeste 42 Oeste 0 963.4 0.9 49
2019-04-15 18:00:00 18.1 22 Oeste 43 Oeste 0 962.8 0.5 48
2019-04-15 17:00:00 17.8 14 Sudoeste 32 Oeste 0 962.6 0 60
2019-04-15 16:00:00 15.8 15 Oeste 33 Sudoeste 0 962.5 0.3 72
2019-04-15 15:00:00 13.1 17 Oeste 36 Sudoeste 0 962.3 0.5 78
2019-04-15 14:00:00 12.7 18 Sudoeste 46 Oeste 0.2 962.6 0.9 86
2019-04-15 13:00:00 17.1 15 Sudoeste 35 Oeste 0 962.2 1.1 63
2019-04-15 12:00:00 16.8 13 Sudoeste 28 Sudoeste 0 961.8 0.9 64
2019-04-15 11:00:00 13.6 19 Sudoeste 37 Sudoeste 0 961.7 1.4 75
2019-04-15 10:00:00 14.4 16 Sudoeste 29 Sudoeste 0 961.1 1.4 73
2019-04-15 09:00:00 13.8 8 Sudoeste 21 Sudoeste 0 960.9 0.8 76
2019-04-15 08:00:00 12.9 9 Sudoeste 20 Sudoeste 0 960.3 -0.1 84
2019-04-15 07:00:00 12.2 5 Sudoeste 8 Sudoeste 0 959.7 -1.7 90
2019-04-15 06:00:00 12.9 3 Sur 6 Este 0 960.1 -1.9 89
2019-04-15 05:00:00 13.6 2 Sudeste 6 Oeste 0 960.4 -2.2 86
2019-04-15 04:00:00 14.2 5 Sudoeste 13 Sur 0 961.4 -1.5 85
2019-04-15 03:00:00 14.4 8 Sur 13 Sudoeste 0 962 -1.2 86
2019-04-15 02:00:00 14.4 5 Sudeste 8 Sudeste 0 962.6 -0.7 82
2019-04-15 01:00:00 15.1 5 Sudeste 8 Este 0 962.9 -0.2 83
2019-04-15 00:00:00 15.2 4 Sudoeste 6 Sur 0 963.2 0 81
2019-04-14 23:00:00 16.7 3 Sur 10 Sur 0 963.3 -0.1 76
2019-04-14 22:00:00 18.1 5 Sudeste 10 Sur 0 963.1 -0.7 70
2019-04-14 21:00:00 20 7 Sur 13 Sur 0 963.2 -0.7 61
2019-04-14 20:00:00 21.8 8 Sur 18 Sudoeste 0 963.4 -1.3 53
2019-04-14 19:00:00 20.9 5 Norte 12 Noroeste 0 963.8 -1.6 63
2019-04-14 18:00:00 21.4 5 Noroeste 18 Noroeste 0 963.9 -1.9 61
2019-04-14 17:00:00 20.7 8 Oeste 12 Oeste 0 964.7 -1.6 61
2019-04-14 16:00:00 21.2 4 Noroeste 17 Noroeste 0 965.4 -1.2 60
2019-04-14 15:00:00 21.3 6 Norte 15 Norte 0 965.8 -1.2 62
2019-04-14 14:00:00 19.5 3 Sur 13 Noroeste 0 966.3 -0.5 68
2019-04-14 13:00:00 18.4 6 Norte 14 Noroeste 0 966.6 -0.1 74
2019-04-14 12:00:00 17 5 Noroeste 11 Norte 0 967 0.5 79
2019-04-14 11:00:00 16.2 3 Norte 10 Nordeste 0 966.8 0.5 83
2019-04-14 10:00:00 14.9 4 Norte 6 Noroeste 0 966.7 0.6 87
2019-04-14 09:00:00 13.2 5 Sudeste 7 Sudeste 0 966.5 0.2 92
2019-04-14 08:00:00 13.1 3 Este 9 Noroeste 0 966.3 -0.4 93
2019-04-14 07:00:00 13.4 5 Oeste 13 Oeste 0 966.1 -1 92
2019-04-14 06:00:00 13.8 7 Oeste 22 Noroeste 0 966.3 -1 90
2019-04-14 05:00:00 13.9 13 Oeste 22 Oeste 0 966.7 -0.8 90
2019-04-14 04:00:00 13.9 9 Oeste 23 Sudoeste 0 967.1 -0.9 89
2019-04-14 03:00:00 14.1 14 Oeste 24 Oeste 0 967.3 -0.8 88
2019-04-14 02:00:00 14.2 13 Oeste 24 Oeste 0 967.5 -0.8 86
2019-04-14 01:00:00 14.5 14 Oeste 23 Oeste 0 968 0.2 84
2019-04-14 00:00:00 14.4 7 Oeste 24 Sudoeste 0 968.1 0.9 83
2019-04-13 23:00:00 14.8 10 Oeste 27 Oeste 0 968.3 1.3 83
2019-04-13 22:00:00 15.7 10 Oeste 22 Oeste 0 967.8 1 78
2019-04-13 21:00:00 17.3 12 Oeste 27 Oeste 0 967.2 0.6 67
2019-04-13 20:00:00 18.4 14 Sudoeste 28 Sudoeste 0 967 0.3 59
2019-04-13 19:00:00 18.8 19 Sudoeste 31 Sudoeste 0 966.8 -0.2 54
2019-04-13 18:00:00 20.3 17 Sudoeste 28 Oeste 0 966.6 -0.5 46
2019-04-13 17:00:00 19.7 15 Oeste 26 Oeste 0 966.7 -0.7 38
2019-04-13 16:00:00 20.5 14 Noroeste 26 Noroeste 0 967 -0.5 32
2019-04-13 15:00:00 20.8 9 Oeste 25 Noroeste 0 967.1 -0.4 28
2019-04-13 14:00:00 19.7 7 Noroeste 21 Noroeste 0 967.4 -0.2 26
2019-04-13 13:00:00 19.1 7 Norte 14 Noroeste 0 967.5 0.2 26
2019-04-13 12:00:00 18.4 4 Noroeste 13 Noroeste 0 967.5 0.4 27
2019-04-13 11:00:00 15.7 6 Norte 10 Noroeste 0 967.6 0.8 52
2019-04-13 10:00:00 14 3 Sudoeste 8 Sur 0 967.3 0.7 63
2019-04-13 09:00:00 9.7 5 Sudoeste 9 Sur 0 967.1 0.5 79
2019-04-13 08:00:00 8.8 7 Sur 9 Sur 0 966.8 0.3 80
2019-04-13 07:00:00 8.5 5 Sur 12 Sur 0 966.6 0.1 81
2019-04-13 06:00:00 8.8 8 Sudoeste 13 Sudoeste 0 966.6 -0.4 78
2019-04-13 05:00:00 9 7 Sudoeste 12 Sudoeste 0 966.5 -0.7 79
2019-04-13 04:00:00 9.5 8 Sudoeste 12 Sudoeste 0 966.5 -0.6 76
2019-04-13 03:00:00 10.3 8 Sudoeste 11 Sudoeste 0 967 0.2 74
2019-04-13 02:00:00 11.4 6 Sudoeste 12 Oeste 0 967.2 0.6 71
2019-04-13 01:00:00 12.5 7 Sudoeste 17 Sudoeste 0 967.1 1.2 68
2019-04-13 00:00:00 13.8 11 Sudoeste 22 Oeste 0 966.8 1.3 63
2019-04-12 23:00:00 14.2 12 Sudoeste 24 Oeste 0 966.6 1 58
2019-04-12 22:00:00 15.4 8 Sur 17 Sudoeste 0 965.9 0.4 46
2019-04-12 21:00:00 17.9 4 Oeste 14 Oeste 0 965.5 -0.1 35
2019-04-12 20:00:00 19.3 9 Oeste 21 Noroeste 0 965.6 -0.3 27
2019-04-12 19:00:00 19.5 8 Noroeste 20 Oeste 0 965.5 -1.1 27
2019-04-12 18:00:00 19.7 13 Noroeste 27 Noroeste 0 965.6 -1.5 29
2019-04-12 17:00:00 19.3 12 Noroeste 20 Oeste 0 965.9 -1.6 28
2019-04-12 16:00:00 19 9 Norte 18 Nordeste 0 966.6 -1.1 31
2019-04-12 15:00:00 18.5 9 Norte 20 Noroeste 0 967.1 -0.8 31
2019-04-12 14:00:00 17.7 9 Norte 23 Nordeste 0 967.5 -0.2 32
2019-04-12 13:00:00 17.6 8 Este 20 Este 0 967.7 0.1 31
2019-04-12 12:00:00 15.9 3 Nordeste 16 Nordeste 0 967.9 0.5 42
2019-04-12 11:00:00 13.6 7 Nordeste 13 Nordeste 0 967.7 0.6 52
2019-04-12 10:00:00 11 3 Nordeste 8 Sudeste 0 967.6 0.6 62
2019-04-12 09:00:00 5.1 5 Sudoeste 9 Sur 0 967.4 0.8 85
2019-04-12 08:00:00 4.3 6 Sur 9 Sur 0 967.1 0.2 85
2019-04-12 07:00:00 4.6 7 Sur 10 Sur 0 967 0 85
2019-04-12 06:00:00 4.9 6 Sur 9 Sur 0 966.6 -0.6 85
2019-04-12 05:00:00 5.6 7 Sur 9 Sur 0 966.9 -0.5 84
2019-04-12 04:00:00 6 7 Sur 10 Sur 0 967 -0.4 85
2019-04-12 03:00:00 7 7 Sudoeste 11 Sudoeste 0 967.2 -0.3 83
2019-04-12 02:00:00 7.6 6 Sur 10 Sur 0 967.4 0.1 82
2019-04-12 01:00:00 8.9 6 Sur 10 Sudoeste 0 967.4 1 77
2019-04-12 00:00:00 10.3 6 Sur 12 Sudoeste 0 967.5 1.4 70
2019-04-11 23:00:00 11.2 7 Sudoeste 12 Oeste 0 967.3 1.2 62
2019-04-11 22:00:00 13.4 2 Sudoeste 7 Norte 0 966.4 0.4 50
2019-04-11 21:00:00 14.8 6 Norte 14 Norte 0 966.1 0 46
2019-04-11 20:00:00 15.6 6 Norte 26 Norte 0 966.1 -0.1 42
2019-04-11 19:00:00 17.5 14 Norte 27 Noroeste 0 966 -0.7 37
2019-04-11 18:00:00 18.3 11 Noroeste 26 Noroeste 0 966.1 -1 35
2019-04-11 17:00:00 17.3 10 Noroeste 33 Noroeste 0 966.2 -1.3 34
2019-04-11 16:00:00 17.9 8 Noroeste -- -- 0 966.7 -1.4 38
2019-04-11 15:00:00 16.9 9 Noroeste 25 Norte 0 967.1 -1 41
2019-04-11 14:00:00 15.6 10 Noroeste 21 Oeste 0 967.5 -0.6 44
2019-04-11 13:00:00 14.6 8 Noroeste 21 Noroeste 0 968.1 0.3 52
2019-04-11 12:00:00 13 9 Norte 17 Norte 0 968.1 0.5 63
2019-04-11 11:00:00 11 10 Noroeste 18 Noroeste 0 968.1 1.1 70
2019-04-11 10:00:00 9.6 7 Noroeste 15 Noroeste 0 967.8 0.8 72
2019-04-11 09:00:00 6.2 7 Sudoeste 10 Oeste 0 967.6 0.6 86
2019-04-11 08:00:00 6.1 5 Sudoeste 12 Sudoeste 0 967 -0.1 85
2019-04-11 07:00:00 6.3 5 Sudoeste 11 Sudoeste 0 967 0.1 85
2019-04-11 06:00:00 6.6 5 Sudoeste 10 Oeste 0 967 -0.3 84
2019-04-11 05:00:00 7.4 8 Oeste 15 Oeste 0 967.1 -0.3 81
2019-04-11 04:00:00 7.5 8 Oeste 13 Oeste 0 966.9 -0.5 81
2019-04-11 03:00:00 7.8 6 Sudoeste 16 Oeste 0 967.3 0 79
2019-04-11 02:00:00 8.4 8 Oeste 20 Oeste 0 967.4 0.1 78
2019-04-11 01:00:00 8.8 13 Oeste 20 Sudoeste 0 967.4 0.8 77
2019-04-11 00:00:00 9.2 10 Oeste 22 Oeste 0 967.3 1.9 77
2019-04-10 23:00:00 10.2 13 Oeste 28 Noroeste 0 967.3 2.3 73
2019-04-10 22:00:00 11.1 15 Oeste 32 Noroeste 0 966.6 1.9 66
2019-04-10 21:00:00 12.4 20 Oeste 39 Noroeste 0 965.4 0.5 63
2019-04-10 20:00:00 14.2 22 Noroeste 39 Noroeste 0 965 -0.2 53
2019-04-10 19:00:00 14.8 25 Noroeste 46 Oeste 0 964.7 -0.9 52
2019-04-10 18:00:00 14.7 24 Oeste 43 Oeste 0 964.9 -0.9 54
2019-04-10 17:00:00 14.9 17 Oeste 44 Noroeste 0 965.2 -0.7 54
2019-04-10 16:00:00 15.3 24 Oeste 41 Oeste 0 965.6 -1 49
2019-04-10 15:00:00 14.7 24 Noroeste 47 Noroeste 0 965.8 -0.6 51
2019-04-10 14:00:00 13.8 27 Oeste 45 Noroeste 0 965.9 -0.2 54
2019-04-10 13:00:00 12.8 21 Oeste 41 Oeste 0 966.6 0.8 61
2019-04-10 12:00:00 11.2 20 Oeste 34 Noroeste 0 966.4 1 71
2019-04-10 11:00:00 10.2 18 Oeste 33 Oeste 0 966.1 1 73
2019-04-10 10:00:00 8.4 18 Oeste 35 Oeste 0 965.8 1 84
2019-04-10 09:00:00 7.4 18 Oeste 33 Sudoeste 0 965.4 0.5 89
2019-04-10 08:00:00 7.2 19 Oeste 37 Oeste 0 965.1 0.2 91
2019-04-10 07:00:00 7.5 18 Oeste 34 Oeste 0 964.8 -0.1 89
2019-04-10 06:00:00 7.7 17 Oeste 40 Oeste 0 964.9 -0.4 88
2019-04-10 05:00:00 8.1 20 Oeste 38 Oeste 0 964.9 -0.4 86
2019-04-10 04:00:00 8.1 22 Oeste 36 Oeste 0 964.9 -0.4 86
2019-04-10 03:00:00 8.3 18 Oeste 35 Oeste 0 965.3 0 86
2019-04-10 02:00:00 8.4 21 Oeste 36 Oeste 0 965.3 0 86
2019-04-10 01:00:00 8.8 21 Oeste 39 Oeste 0 965.3 0.7 83
2019-04-10 00:00:00 9 19 Oeste 40 Oeste 0 965.3 1.1 82
2019-04-09 23:00:00 9.3 22 Oeste 40 Oeste 0 965.3 1.5 77
2019-04-09 22:00:00 9.7 22 Oeste 45 Oeste 0 964.6 1.2 71
2019-04-09 21:00:00 11.2 24 Oeste 49 Oeste 0 964.2 1.1 67
2019-04-09 20:00:00 12.6 26 Oeste 44 Oeste 0 963.8 0.6 62
2019-04-09 19:00:00 13.7 27 Oeste 54 Oeste 0 963.4 -0.1 55
2019-04-09 18:00:00 14.7 25 Oeste 49 Oeste 0 963.1 -0.4 57
2019-04-09 17:00:00 14.7 24 Oeste 50 Oeste 0 963.2 -0.6 52
2019-04-09 16:00:00 14.5 25 Oeste 47 Oeste 0 963.5 -0.4 55
2019-04-09 15:00:00 13.7 24 Oeste 45 Oeste 0 963.5 -0.5 62
2019-04-09 14:00:00 12.4 24 Oeste 49 Sudoeste 0 963.8 0.2 69
2019-04-09 13:00:00 11.4 23 Oeste 48 Oeste 0 963.9 0.4 74
2019-04-09 12:00:00 11.3 24 Oeste 50 Oeste 0 964 0.9 71
2019-04-09 11:00:00 10.7 24 Oeste 46 Sudoeste 0 963.6 0.8 71
2019-04-09 10:00:00 10 23 Sudoeste 43 Sudoeste 0 963.5 0.7 78
2019-04-09 09:00:00 8.1 19 Sudoeste 47 Sudoeste 0.6 963.1 0.2 87
2019-04-09 08:00:00 9 18 Sudoeste 38 Sudoeste 0 962.8 -0.2 85
2019-04-09 07:00:00 8.9 17 Sudoeste 34 Oeste 0 962.8 -0.4 84
2019-04-09 06:00:00 8.8 15 Sudoeste 32 Sudoeste 0 962.9 -0.6 84
2019-04-09 05:00:00 8.8 19 Sudoeste 36 Sudoeste 0 963 -0.6 84
2019-04-09 04:00:00 9 15 Sudoeste 30 Sudoeste 0 963.2 -0.4 86
2019-04-09 03:00:00 8.6 13 Sudoeste 35 Sudoeste 0 963.5 -0.1 85
2019-04-09 02:00:00 8.5 11 Sudoeste 31 Sudoeste 0 963.6 0 86
2019-04-09 01:00:00 9.1 14 Sudoeste 28 Sudoeste 0 963.6 0.3 80
2019-04-09 00:00:00 9.2 14 Sudoeste 26 Sudoeste 0 963.6 0.8 78
2019-04-08 23:00:00 9.5 14 Sudoeste 26 Sudoeste 0 963.6 1 74
2019-04-08 22:00:00 9.2 8 Sudoeste 17 Oeste 0 963.3 0.4 81
2019-04-08 21:00:00 10.3 8 Sudoeste 26 Oeste 0 962.8 0.5 72
2019-04-08 20:00:00 10.8 13 Sudoeste 29 Sudoeste 0 962.6 -0.2 70
2019-04-08 19:00:00 11.1 18 Oeste 54 Oeste 0.6 962.9 0.2 82
2019-04-08 18:00:00 13.1 15 Oeste 31 Oeste 0 962.3 -0.5 58
2019-04-08 17:00:00 13.8 24 Oeste 55 Oeste 0 962.8 -0.4 55
2019-04-08 16:00:00 14.4 17 Sudoeste 37 Oeste 0 962.7 -0.7 55
2019-04-08 15:00:00 15.2 16 Sudoeste 31 Sudoeste 0 962.8 -0.6 53
2019-04-08 14:00:00 14.4 14 Oeste 30 Oeste 0 963.2 0.2 48
2019-04-08 13:00:00 13.5 12 Oeste 26 Oeste 0 963.4 0.7 52
2019-04-08 12:00:00 12.5 17 Oeste 31 Oeste 0 963.4 0.9 64
2019-04-08 11:00:00 11.6 14 Oeste 24 Oeste 0 963 1.3 73
2019-04-08 10:00:00 10.4 13 Sudoeste 23 Sudoeste 0 962.7 1.5 81
2019-04-08 09:00:00 9.3 10 Sudoeste 20 Oeste 0 962.5 1.3 91
2019-04-08 08:00:00 9.3 9 Oeste 26 Oeste 0 961.7 0.6 93
2019-04-08 07:00:00 9.9 9 Sudoeste 17 Sudoeste 0.2 961.2 0.1 92
2019-04-08 06:00:00 9.9 10 Oeste 20 Oeste 0 961.2 0.3 91
2019-04-08 05:00:00 10.5 11 Oeste 30 Sudoeste 0.2 961.1 0.1 91
2019-04-08 04:00:00 10.9 14 Oeste 33 Sudoeste 0.4 961.1 -0.3 92
2019-04-08 03:00:00 11.5 15 Sudoeste 41 Sudoeste 0.4 960.9 -0.5 89
2019-04-08 02:00:00 11.7 22 Sudoeste 39 Sudoeste 0 961 -0.8 86
2019-04-08 01:00:00 11.8 15 Sudoeste 30 Sudoeste 0 961.4 0.1 83
2019-04-08 00:00:00 11.7 15 Sudoeste 32 Sudoeste 0.4 961.4 0.5 83
2019-04-07 23:00:00 12 16 Sudoeste 33 Oeste 0 961.8 0.8 83
2019-04-07 22:00:00 12.2 14 Sudoeste 31 Sudoeste 0 961.3 0.6 82
2019-04-07 21:00:00 12.3 11 Sudoeste 24 Oeste 0 960.9 0.5 84
2019-04-07 20:00:00 12.3 13 Sudoeste 36 Oeste 0.2 961 0.5 88
2019-04-07 19:00:00 12.8 15 Sudoeste 31 Sudoeste 0 960.7 0.1 83
2019-04-07 18:00:00 12.8 13 Sudoeste 33 Sudoeste 0 960.4 -0.5 85
2019-04-07 17:00:00 12.9 17 Sur 29 Sur 0 960.5 -0.7 78
2019-04-07 16:00:00 12.5 13 Sur 32 Sur 0 960.6 -0.8 78
2019-04-07 15:00:00 11.9 15 Sur 29 Sudeste 0 960.9 -0.2 77
2019-04-07 14:00:00 11 13 Sur 25 Sudoeste 0 961.2 0.4 78
2019-04-07 13:00:00 11 10 Sur 25 Sudoeste 0 961.4 1.1 74
2019-04-07 12:00:00 10.4 11 Sudoeste 27 Oeste 0 961.1 1.2 75
2019-04-07 11:00:00 9.8 14 Sudoeste 24 Oeste 0 960.8 1.5 81
2019-04-07 10:00:00 8.7 6 Sudoeste 15 Sudoeste 0 960.3 1.4 87
2019-04-07 09:00:00 7.9 8 Sudoeste 18 Sudoeste 0 959.9 1.2 87
2019-04-07 08:00:00 7.9 12 Sudoeste 26 Sudoeste 0 959.3 0.9 83
2019-04-07 07:00:00 7.8 13 Sudoeste 26 Oeste 0 958.9 0.4 87
2019-04-07 06:00:00 7.3 10 Sudoeste 26 Sudoeste 0 958.7 0.4 88
2019-04-07 05:00:00 7.1 9 Sudoeste 33 Sudoeste 0.2 958.4 0.4 89
2019-04-07 04:00:00 7.5 15 Oeste 34 Oeste 0.2 958.5 0.7 91
2019-04-07 03:00:00 7.5 17 Oeste 39 Oeste 0 958.3 0.6 87
2019-04-07 02:00:00 7.6 21 Oeste 47 Oeste 0.2 958 0.5 86
2019-04-07 01:00:00 8.2 26 Oeste 50 Sudoeste 0 957.8 0.6 80
2019-04-07 00:00:00 8.1 21 Oeste 43 Oeste 0 957.7 1.1 78
2019-04-06 23:00:00 8.2 25 Sudoeste 43 Oeste 0 957.5 0.8 74
2019-04-06 22:00:00 7.9 23 Oeste 41 Sudoeste 0 957.2 1.5 75
2019-04-06 21:00:00 7.4 20 Sudoeste 36 Oeste 0 956.6 1.6 85
2019-04-06 20:00:00 7.1 22 Oeste 44 Oeste 0.6 956.7 2.1 85
2019-04-06 19:00:00 7.6 24 Oeste -- -- 0 955.7 1 83
2019-04-06 18:00:00 9.4 11 Noroeste -- -- 0 955 0.1 79
2019-04-06 17:00:00 10.5 23 Oeste 67 Oeste 0.2 954.6 -0.1 64
2019-04-06 16:00:00 10.8 28 Oeste 57 Oeste 0 954.7 0 60
2019-04-06 15:00:00 8.6 17 Noroeste 49 Oeste 0 954.9 0.1 83
2019-04-06 14:00:00 7.9 19 Sudoeste 59 Noroeste 2.6 954.7 0.3 83
2019-04-06 13:00:00 9.7 21 Oeste 45 Sudoeste 0 954.7 0.5 71
2019-04-06 12:00:00 8.6 26 Oeste 49 Sudoeste 0 954.8 1.3 74
2019-04-06 11:00:00 7.6 16 Sudoeste 37 Sudoeste 0.2 954.4 1.2 86
2019-04-06 10:00:00 6.1 15 Sudoeste 36 Sudoeste 1.2 954.2 1.3 89
2019-04-06 09:00:00 6.1 22 Sudoeste 42 Sudoeste 0.4 953.5 0.8 89
2019-04-06 08:00:00 6.4 21 Sudoeste 46 Oeste 0 953.2 0.1 86
2019-04-06 07:00:00 6.2 19 Sudoeste 36 Sudoeste 0 952.9 -0.4 85
2019-04-06 06:00:00 6.2 19 Sudoeste 38 Sudoeste 0 952.7 -1 83
2019-04-06 05:00:00 6.2 15 Sudoeste 37 Oeste 0 953.1 -0.7 84
2019-04-06 04:00:00 6.3 14 Sudoeste 25 Sudoeste 0 953.3 -0.1 87
2019-04-06 03:00:00 5.9 12 Sudoeste 42 Oeste 0 953.7 0.5 87
2019-04-06 02:00:00 6.7 24 Oeste 45 Oeste 0 953.8 0.8 81
2019-04-06 01:00:00 6.9 25 Sudoeste 48 Sudoeste 0 953.4 1.2 79
2019-04-06 00:00:00 6.3 22 Oeste 41 Oeste 0 953.2 1.6 84
2019-04-05 23:00:00 6.6 23 Oeste 38 Sudoeste 0 953 1.8 81
2019-04-05 22:00:00 6.4 22 Sudoeste 41 Sudoeste 0.2 952.2 1.8 80
2019-04-05 21:00:00 6.6 21 Oeste 43 Oeste 0.2 951.6 1.6 85
2019-04-05 20:00:00 7.4 22 Oeste 46 Oeste 0 951.2 1.3 79
2019-04-05 19:00:00 8.1 23 Oeste 53 Sudoeste 0 950.4 1 73
2019-04-05 18:00:00 7.3 12 Sudoeste 41 Sudoeste 0.4 950 0.4 84
2019-04-05 17:00:00 7.5 15 Sudoeste -- -- 0 949.9 -0.3 79
2019-04-05 16:00:00 11.6 23 Sudoeste 49 Sudoeste 0 949.4 -1.2 51
2019-04-05 15:00:00 10.2 13 Oeste 36 Sudoeste 0 949.6 -0.9 59
2019-04-05 14:00:00 8 15 Sudoeste 49 Sudoeste 0 950.2 0.8 69
2019-04-05 13:00:00 8.3 17 Oeste 31 Noroeste 0 950.6 2.6 73
2019-04-05 12:00:00 5.5 23 Oeste 41 Oeste 0 950.5 1.1 84
2019-04-05 11:00:00 5.9 18 Oeste 37 Sudoeste 0.2 949.4 1.6 78
2019-04-05 10:00:00 3.7 5 Noroeste 39 Oeste 0.4 948 0.4 90
2019-04-05 09:00:00 2.7 14 Oeste 53 Oeste 2.6 949.4 1.5 93
2019-04-05 08:00:00 6.3 9 Sudoeste 21 Oeste 0 947.8 -0.4 87
2019-04-05 07:00:00 6.1 9 Sudoeste 21 Oeste 0 947.6 -0.9 89
2019-04-05 06:00:00 6.6 12 Oeste 32 Oeste 0.4 947.9 -1.2 90
2019-04-05 05:00:00 7.3 14 Oeste 29 Oeste 0.8 948.2 -1.4 89
2019-04-05 04:00:00 8.1 10 Sudoeste 28 Sudoeste 0 948.5 -1.1 82
2019-04-05 03:00:00 7.9 6 Sudoeste 19 Sudoeste 0.2 949.1 -1 85
2019-04-05 02:00:00 7.6 9 Sudoeste 36 Sur 0 949.6 -1.2 90
2019-04-05 01:00:00 7.4 17 Sur 37 Sudoeste 0 949.6 -1.5 86
2019-04-05 00:00:00 7.4 18 Sur 34 Sudoeste 0 950.1 -1.2 81
2019-04-04 23:00:00 7.4 13 Sudoeste 30 Oeste 0 950.8 -0.2 81
2019-04-04 22:00:00 7.6 9 Oeste 30 Oeste 0.4 951.1 -0.2 87
2019-04-04 21:00:00 8.7 18 Oeste 41 Oeste 0 951.3 -0.2 72
2019-04-04 20:00:00 11.8 20 Oeste 39 Oeste 0 951 -0.8 44
2019-04-04 19:00:00 12.8 19 Oeste 40 Oeste 0 951.3 -1.5 44
2019-04-04 18:00:00 14.2 17 Sudoeste 36 Sudoeste 0 951.5 -2.2 37
2019-04-04 17:00:00 14.4 18 Sudoeste 32 Sudoeste 0 951.8 -2.7 36
2019-04-04 16:00:00 14.2 17 Oeste 31 Sudoeste 0 952.8 -2.2 27
2019-04-04 15:00:00 13.4 10 Oeste 22 Sudoeste 0 953.7 -1.7 32
2019-04-04 14:00:00 12.2 8 Noroeste 23 Noroeste 0 954.5 -1.1 32
2019-04-04 13:00:00 11.5 14 Noroeste 24 Noroeste 0 955 -0.5 34
2019-04-04 12:00:00 9.5 10 Noroeste 21 Oeste 0 955.4 0.1 43
2019-04-04 11:00:00 7.6 10 Noroeste 18 Noroeste 0 955.6 0.8 51
2019-04-04 10:00:00 5.5 9 Noroeste 20 Noroeste 0 955.5 0.9 61
2019-04-04 09:00:00 3.3 5 Sudoeste 17 Noroeste 0 955.3 0.6 68
2019-04-04 08:00:00 3.5 9 Noroeste 20 Noroeste 0 954.8 0 65
2019-04-04 07:00:00 3.7 10 Oeste 17 Noroeste 0 954.6 -0.4 64
2019-04-04 06:00:00 4 9 Noroeste 19 Noroeste 0 954.7 -1 63
2019-04-04 05:00:00 5 10 Noroeste 24 Noroeste 0 954.8 -1.5 59
2019-04-04 04:00:00 5.1 11 Noroeste 19 Noroeste 0 955 -1.4 64
2019-04-04 03:00:00 5.6 8 Noroeste 17 Noroeste 0 955.7 -0.8 74
2019-04-04 02:00:00 6.5 10 Oeste 22 Oeste 0 956.3 -0.1 73
2019-04-04 01:00:00 7.1 14 Oeste 24 Oeste 0 956.4 1 70
2019-04-04 00:00:00 8 15 Oeste 28 Oeste 0 956.5 1.8 67
2019-04-03 23:00:00 8.9 14 Oeste 28 Oeste 0 956.4 1.8 63
2019-04-03 22:00:00 10.2 19 Oeste 36 Oeste 0 955.4 0.8 56
2019-04-03 21:00:00 12.2 19 Oeste 35 Oeste 0 954.7 -0.3 43
2019-04-03 20:00:00 14.6 18 Oeste 36 Oeste 0 954.6 -1.1 35
2019-04-03 19:00:00 15.8 18 Noroeste 32 Noroeste 0 954.6 -1.7 34
2019-04-03 18:00:00 16.6 16 Oeste 33 Noroeste 0 955 -2.1 32
2019-04-03 17:00:00 16 11 Noroeste 36 Oeste 0 955.7 -2 35
2019-04-03 16:00:00 15.4 12 Noroeste 34 Noroeste 0 956.3 -1.9 40
2019-04-03 15:00:00 14.4 14 Noroeste 33 Noroeste 0 957.1 -1.4 45
2019-04-03 14:00:00 13.2 13 Noroeste 33 Noroeste 0 957.7 -1 51
2019-04-03 13:00:00 12.4 15 Noroeste 35 Noroeste 0 958.2 -0.7 59
2019-04-03 12:00:00 11.8 15 Noroeste 32 Noroeste 0 958.5 -0.5 61
2019-04-03 11:00:00 9.7 14 Noroeste 27 Oeste 0 958.7 -0.4 69
2019-04-03 10:00:00 8.2 15 Noroeste 28 Noroeste 0 958.9 -0.4 76
2019-04-03 09:00:00 6.6 12 Oeste 21 Oeste 0 959 -0.6 81
2019-04-03 08:00:00 6.9 13 Oeste 24 Sudoeste 0 959.1 -1.2 76
2019-04-03 07:00:00 6.5 7 Sudoeste 16 Sudoeste 0 959.3 -1.4 79
2019-04-03 06:00:00 7.3 3 Sudoeste 17 Oeste 0 959.6 -1.9 72
2019-04-03 05:00:00 7.6 6 Oeste 14 Oeste 0 960.3 -1.8 74
2019-04-03 04:00:00 8.4 7 Oeste 24 Oeste 0 960.7 -1.8 76
2019-04-03 03:00:00 9.1 10 Sudoeste 19 Oeste 0 961.5 -1.3 77
2019-04-03 02:00:00 9.9 3 Sur 20 Oeste 0 962.1 -0.7 74
2019-04-03 01:00:00 10.9 11 Oeste 26 Oeste 0 962.5 0 74
2019-04-03 00:00:00 11.9 15 Oeste 29 Oeste 0 962.8 0.6 73
2019-04-02 23:00:00 13.1 17 Oeste 33 Oeste 0 962.8 0.8 69
2019-04-02 22:00:00 14.4 13 Oeste 23 Oeste 0 962.5 0.2 62
2019-04-02 21:00:00 15.8 12 Sudoeste 26 Sudoeste 0 962.2 -0.4 56
2019-04-02 20:00:00 17.1 15 Sudoeste 30 Sudoeste 0 962 -0.8 50
2019-04-02 19:00:00 17.5 17 Oeste 32 Oeste 0 962.3 -1.1 46
2019-04-02 18:00:00 18.5 16 Oeste 34 Noroeste 0 962.6 -1.2 46
2019-04-02 17:00:00 19.4 14 Oeste 29 Oeste 0 962.8 -1.5 39
2019-04-02 16:00:00 19.2 14 Oeste 26 Noroeste 0 963.4 -1.5 39
2019-04-02 15:00:00 18.7 10 Oeste 26 Oeste 0 963.8 -1.2 39
2019-04-02 14:00:00 18.2 10 Oeste 26 Oeste 0 964.3 -0.5 43
2019-04-02 13:00:00 17 14 Oeste 26 Oeste 0.2 964.9 0.3 46
2019-04-02 12:00:00 15.4 8 Oeste 17 Noroeste 0 965 0.7 57
2019-04-02 11:00:00 13.6 8 Oeste 14 Oeste 0 964.8 1 68
2019-04-02 10:00:00 10.8 6 Sudoeste 10 Sudoeste 0 964.6 1 79
2019-04-02 09:00:00 7.4 7 Sudoeste 12 Sudoeste 0 964.3 0.6 89
2019-04-02 08:00:00 6.8 6 Sur 11 Sudoeste 0 963.8 -0.1 89
2019-04-02 07:00:00 6.8 8 Sur 12 Sur 0 963.6 -0.5 93
2019-04-02 06:00:00 7 8 Sur 10 Sur 0 963.7 -0.7 94
2019-04-02 05:00:00 6.9 7 Sur 11 Sudoeste 0 963.9 -0.4 92
2019-04-02 04:00:00 7.5 8 Sur 11 Sudeste 0 964.1 0 92
2019-04-02 03:00:00 8.4 6 Sur 14 Sur 0 964.4 0.1 90
2019-04-02 02:00:00 8 9 Sur 12 Sur 0 964.3 0.5 91
2019-04-02 01:00:00 9 9 Sur 12 Sur 0 964.1 1.1 91
2019-04-02 00:00:00 9.8 3 Sudoeste 8 Norte 0 964.3 2.1 90
2019-04-01 23:00:00 11 8 Sudeste 12 Sur 0 963.8 2 88
2019-04-01 22:00:00 11.5 5 Sur 10 Sur 0 963 1.3 87
2019-04-01 21:00:00 11.9 5 Sur 14 Sudoeste 0 962.2 0.7 86
2019-04-01 20:00:00 12 6 Sur 17 Sudoeste 0 961.8 0.4 86
2019-04-01 19:00:00 11.3 11 Sur 27 Sur 0.8 961.7 0.4 85
2019-04-01 18:00:00 11.7 8 Sudeste 18 Sudeste 2 961.5 -0.3 86
2019-04-01 17:00:00 12.2 17 Sudoeste -- -- 0.6 961.4 -1 81
2019-04-01 16:00:00 15.3 10 Norte 22 Nordeste 0 961.3 -1.3 70
2019-04-01 15:00:00 15.6 14 Nordeste 23 Nordeste 0 961.8 -0.5 69
2019-04-01 14:00:00 12.6 10 Nordeste 18 Nordeste 0 962.4 0.6 88
2019-04-01 13:00:00 12.9 6 Este 14 Este 0 962.6 1.4 86
2019-04-01 12:00:00 11.5 9 Este 14 Este 0.4 962.3 1.8 92
2019-04-01 11:00:00 11.5 7 Este 12 Este 0.4 961.8 1.8 90
2019-04-01 10:00:00 11.2 5 Nordeste 14 Sudeste 0.2 961.2 1.6 90
2019-04-01 09:00:00 11 9 Sudeste 21 Sudeste 0.2 960.5 1 90
2019-04-01 08:00:00 11 4 Sur 10 Sudeste 0.2 960 0.3 89
2019-04-01 07:00:00 11.1 7 Sudeste 22 Sudeste 0.2 959.6 -0.4 87
2019-04-01 06:00:00 11.5 9 Sudeste 18 Sudeste 0 959.5 -0.6 85
2019-04-01 05:00:00 11.3 5 Sudeste 13 Sur 0 959.7 -0.2 85
2019-04-01 04:00:00 11.6 7 Sur 15 Este 0 960 0.2 82
2019-04-01 03:00:00 11.8 9 Este 13 Este 0 960.1 0.3 80
2019-04-01 02:00:00 12.1 7 Nordeste 11 Nordeste 0 959.9 0.2 76
2019-04-01 01:00:00 12.5 4 Nordeste 15 Sudoeste 0 959.8 0.7 75
2019-04-01 00:00:00 13 7 Oeste 18 Sur 0 959.8 1.6 73
2019-03-31 23:00:00 13.2 10 Sur 31 Sur 0 959.7 1.8 74
2019-03-31 22:00:00 14.6 23 Sudeste 49 Sudeste 0 959.1 1.5 64
2019-03-31 21:00:00 16.3 6 Sudeste 12 Este 0 958.2 0.4 47
2019-03-31 20:00:00 18.1 8 Este 24 Nordeste 0 957.9 -0.5 41
2019-03-31 19:00:00 18.9 9 Este 21 Este 0 957.6 -1.4 39
2019-03-31 18:00:00 19.8 5 Nordeste 28 Este 0 957.8 -2.3 39
2019-03-31 17:00:00 19.2 5 Este 27 Nordeste 0 958.4 -2.4 43
2019-03-31 16:00:00 18.7 6 Este 17 Sudeste 0 959 -2.2 48
2019-03-31 15:00:00 16.1 4 Norte 9 Sudoeste 0 960.1 -0.9 58
2019-03-31 14:00:00 14.5 4 Oeste 8 Oeste 0.2 960.8 0 66
2019-03-31 13:00:00 13.5 2 Sur 12 Este 0 961.2 0.8 71
2019-03-31 12:00:00 14.1 6 Este 18 Nordeste 0 961 0.7 61
2019-03-31 11:00:00 12.2 9 Este 18 Este 0 960.8 0.8 68
2019-03-31 10:00:00 10.4 5 Sudoeste 10 Sur 0 960.4 0.3 74
2019-03-31 09:00:00 7.3 7 Sudoeste 10 Sur 0 960.3 -0.1 81
2019-03-31 08:00:00 7.4 7 Sur 11 Sur 0 960 -0.8 79
2019-03-31 07:00:00 8.6 7 Sur 11 Sur 0 960.1 -1.1 76
2019-03-31 06:00:00 9.8 8 Sudeste 13 Sudeste 0 960.4 -1.2 73
2019-03-31 05:00:00 9.2 5 Sur 8 Sudoeste 0 960.8 -1.4 73
2019-03-31 03:00:00 11.5 4 Nordeste 16 Sur 0 961.6 -1.6 67
2019-03-31 01:00:00 12.7 9 Sur 27 Sudeste 0 962.2 -0.8 63
2019-03-31 00:00:00 14.1 18 Sudeste 33 Sur 0 962.8 0.4 56
2019-03-30 23:00:00 12.4 12 Sudeste 28 Sudeste 0 963.2 1 46
2019-03-30 22:00:00 12.3 5 Sur 8 Sur 0 963 0.7 51
2019-03-30 21:00:00 15.3 3 Sudeste 8 Norte 0 962.4 -0.1 38
2019-03-30 20:00:00 17.1 5 Norte 14 Nordeste 0 962.2 -0.4 31
2019-03-30 19:00:00 18.8 10 Nordeste 19 Nordeste 0 962.3 -0.8 31
2019-03-30 18:00:00 19.5 12 Este 29 Nordeste 0 962.5 -1.4 30
2019-03-30 17:00:00 19.7 12 Nordeste 28 Nordeste 0 962.6 -2.3 29
2019-03-30 16:00:00 19.3 15 Este 32 Este 0 963.1 -2.4 31
2019-03-30 15:00:00 19.4 12 Este 26 Este 0 963.9 -2.4 32
2019-03-30 14:00:00 18.6 16 Este 30 Este 0 964.9 -1.8 35
2019-03-30 13:00:00 18.2 12 Este 29 Nordeste 0 965.5 -1.2 41
2019-03-30 12:00:00 17 12 Este 27 Este 0 966.3 -0.2 46
2019-03-30 11:00:00 15.1 12 Este 25 Nordeste 0 966.7 0.5 48
2019-03-30 10:00:00 14 15 Este 23 Este 0 966.7 0.8 53
2019-03-30 09:00:00 11.6 6 Nordeste 14 Este 0 966.5 0.8 61
2019-03-30 08:00:00 10.4 5 Este 14 Nordeste 0 966.2 0.2 72
2019-03-30 07:00:00 9.9 3 Nordeste 13 Sudeste 0 965.9 -0.5 69
2019-03-30 06:00:00 9.6 5 Sur 10 Sudeste 0 965.7 -1.1 46
2019-03-30 05:00:00 8.3 4 Sur 13 Este 0 966 -0.9 42
2019-03-30 04:00:00 7 7 Sudoeste 14 Sudeste 0 966.4 -0.7 48
2019-03-30 03:00:00 6.6 7 Sur 10 Sur 0 966.8 -0.5 51
2019-03-30 02:00:00 7 5 Sur 14 Este 0 966.9 -0.7 50
2019-03-30 01:00:00 7.4 6 Sur 10 Sudoeste 0 967.1 -0.5 51
2019-03-30 00:00:00 8 7 Sur 9 Sudoeste 0 967.3 0 50
2019-03-29 23:00:00 9 6 Sudoeste 10 Sudoeste 0 967.6 0.6 48
2019-03-29 22:00:00 10.6 6 Sur 9 Sur 0 967.6 0.6 45
2019-03-29 21:00:00 13.7 2 Oeste 8 Sudeste 0 967.3 0.4 36
2019-03-29 20:00:00 17.2 6 Sudeste 12 Este 0 967 -0.1 24
2019-03-29 19:00:00 18.8 9 Sudeste 18 Este 0 967 -0.5 20
2019-03-29 18:00:00 19.7 5 Sudeste 22 Este 0 966.9 -1.4 19
2019-03-29 17:00:00 19.3 12 Este 22 Sudoeste 0 967.1 -1.9 19
2019-03-29 16:00:00 19.5 10 Sudeste 23 Este 0 967.5 -2 21
2019-03-29 15:00:00 19.1 9 Este 32 Nordeste 0 968.3 -1.9 23
2019-03-29 14:00:00 18.2 10 Nordeste 27 Nordeste 0 969 -1.5 26
2019-03-29 13:00:00 17.3 13 Nordeste 26 Nordeste 0 969.5 -1 28
2019-03-29 12:00:00 17 8 Este 26 Este 0 970.2 -0.2 36
2019-03-29 11:00:00 16 9 Este 23 Nordeste 0 970.5 0.5 36
2019-03-29 10:00:00 13.9 11 Sudeste 20 Sudeste 0 970.5 1.4 40
2019-03-29 09:00:00 10.9 9 Sudeste 19 Sudeste 0 970.4 1.6 46
2019-03-29 08:00:00 7.7 3 Este 20 Este 0 970 1.2 48
2019-03-29 07:00:00 6.5 3 Este 12 Este 0 969.1 0.2 50
2019-03-29 06:00:00 8.1 5 Sur 16 Sur 0 968.8 -0.1 41
2019-03-29 05:00:00 8.7 9 Sudeste 17 Sudeste 0 968.8 -0.5 39
2019-03-29 04:00:00 6.4 5 Sur 12 Sudoeste 0 968.9 -0.6 50
2019-03-29 03:00:00 6.1 5 Sudoeste 10 Sudoeste 0 968.9 -0.9 50
2019-03-29 02:00:00 7.2 7 Sudoeste 11 Sudoeste 0 969.3 -0.8 46
2019-03-29 01:00:00 8 8 Sur 11 Sudoeste 0 969.5 -0.6 43
2019-03-29 00:00:00 9.6 6 Sur 14 Sur 0 969.8 0.1 38
2019-03-28 23:00:00 9.5 8 Sudoeste 10 Sudoeste 0 970.1 0.9 43
2019-03-28 22:00:00 12.4 4 Sudeste 13 Sur 0 970.1 1.1 32
2019-03-28 21:00:00 15 8 Sur 17 Sudeste 0 969.7 0.8 24
2019-03-28 20:00:00 17.8 9 Sudeste 23 Este 0 969.2 0 19
2019-03-28 19:00:00 19.5 17 Este 28 Sudeste 0 969 -0.7 18
2019-03-28 18:00:00 20.4 16 Este 32 Este 0 968.9 -1.5 17
2019-03-28 17:00:00 20.6 18 Este 35 Este 0 969.2 -2 17
2019-03-28 16:00:00 20.6 19 Este 38 Este 0 969.7 -2.4 17
2019-03-28 15:00:00 19.9 13 Nordeste 33 Nordeste 0 970.4 -2.1 20
2019-03-28 14:00:00 19 17 Nordeste 31 Este 0 971.2 -1.6 25
2019-03-28 13:00:00 18 -- -- -- -- 0 972.1 -0.4 31
2019-03-28 12:00:00 16.7 12 Este 26 Este 0 972.5 0.1 35
2019-03-28 11:00:00 14.9 15 Este 22 Este 0 972.8 1 41
2019-03-28 10:00:00 13 12 Este 23 Sudeste 0 972.5 1.3 43
2019-03-28 09:00:00 10.9 10 Este 18 Este 0 972.4 1.4 41
2019-03-28 08:00:00 5.1 4 Sur 8 Sudeste 0 971.8 0.9 59
2019-03-28 07:00:00 4.4 6 Sur 10 Sudeste 0 971.2 0.4 60
2019-03-28 06:00:00 5.1 6 Sur 12 Sudeste 0 971 0.3 57
2019-03-28 05:00:00 6.8 6 Sur 9 Sur 0 970.9 0.3 50
2019-03-28 04:00:00 8.4 5 Sudoeste 17 Sudeste 0 970.8 0 42
2019-03-28 03:00:00 12.7 11 Sudeste 19 Sudeste 0 970.7 0 27
2019-03-28 02:00:00 13.5 13 Sudeste 22 Sudeste 0 970.6 0.2 27
2019-03-28 01:00:00 13.5 14 Sudeste 24 Sudeste 0 970.8 0.7 30
2019-03-28 00:00:00 13.3 12 Este 19 Sudeste 0 970.7 1 33
2019-03-27 23:00:00 12.6 8 Sudeste 14 Sudeste 0 970.4 1.1 36
2019-03-27 22:00:00 12.1 4 Sur 9 Este 0 970.1 1 42
2019-03-27 21:00:00 14.9 5 Este 9 Nordeste 0 969.7 1 30
2019-03-27 20:00:00 16.9 7 Nordeste 20 Nordeste 0 969.3 0.6 25
2019-03-27 19:00:00 18.6 14 Nordeste 30 Este 0 969.1 0.2 21
2019-03-27 18:00:00 19.5 17 Nordeste 34 Nordeste 0 968.7 -0.4 20
2019-03-27 17:00:00 19.9 16 Nordeste 36 Nordeste 0 968.7 -1.1 19
2019-03-27 16:00:00 19.8 15 Nordeste 37 Este 0 968.9 -1.1 20
2019-03-27 15:00:00 19.9 17 Este 37 Este 0 969.1 -1.1 21
2019-03-27 14:00:00 19.1 19 Este 40 Este 0 969.8 -0.4 21
2019-03-27 13:00:00 18.1 16 Este 36 Este 0 970 0.1 25
2019-03-27 12:00:00 16.1 25 Este 38 Este 0 970.2 0.5 31
2019-03-27 11:00:00 14.5 18 Este 41 Este 0 970.2 1.3 40
2019-03-27 10:00:00 12.4 21 Este 38 Este 0 969.9 2 44
2019-03-27 09:00:00 10.4 11 Este 27 Este 0 969.7 2.5 53
2019-03-27 08:00:00 9 14 Este 32 Este 0 968.9 2.5 54
2019-03-27 07:00:00 9.5 17 Este 28 Este 0 967.9 1.9 50
2019-03-27 06:00:00 10.1 13 Este 22 Este 0 967.2 1.5 49
2019-03-27 05:00:00 11.6 10 Este 22 Este 0 966.4 1.3 43
2019-03-27 04:00:00 12.7 10 Este 27 Este 0 966 1 43
2019-03-27 03:00:00 13.1 15 Este 30 Este 0 965.7 1.4 42
2019-03-27 02:00:00 14.3 14 Este 30 Este 0 965.1 1.2 38
2019-03-27 01:00:00 14.1 12 Este 22 Este 0 965 1.6 38
2019-03-27 00:00:00 15.8 12 Este 32 Este 0 964.3 1.1 33
2019-03-26 23:00:00 16 14 Este 27 Este 0 963.9 1.4 33
2019-03-26 22:00:00 15.6 6 Este 15 Este 0 963.4 1.5 35
2019-03-26 21:00:00 16.8 5 Sudeste 24 Nordeste 0 963.2 1.7 33
2019-03-26 20:00:00 18.4 11 Nordeste 40 Nordeste 0 962.5 0.9 29
2019-03-26 19:00:00 20.4 23 Nordeste 50 Nordeste 0 961.9 0.2 26
2019-03-26 18:00:00 21.2 23 Nordeste 45 Nordeste 0 961.5 -0.6 26
2019-03-26 17:00:00 21.1 20 Nordeste 42 Nordeste 0 961.6 -1.4 26
2019-03-26 16:00:00 21.8 21 Nordeste 41 Nordeste 0 961.7 -2.1 26
2019-03-26 15:00:00 20.9 23 Nordeste 43 Nordeste 0 962.1 -2.3 26
2019-03-26 14:00:00 18.7 21 Nordeste 41 Nordeste 0 963 -1.3 29
2019-03-26 13:00:00 17 27 Nordeste 46 Nordeste 0 963.8 -0.3 30
2019-03-26 12:00:00 14.9 18 Nordeste 39 Nordeste 0 964.4 0.2 37
2019-03-26 11:00:00 11.9 23 Nordeste 44 Norte 0 964.3 0.3 41
2019-03-26 10:00:00 11 22 Nordeste 44 Nordeste 0 964.1 0.4 42
2019-03-26 09:00:00 10.3 10 Norte 22 Norte 0 964.2 0.6 45
2019-03-26 08:00:00 8.8 5 Nordeste 21 Nordeste 0 964 0.3 46
2019-03-26 07:00:00 8.3 6 Norte 13 Nordeste 0 963.7 0 49
2019-03-26 06:00:00 9.2 5 Noroeste 16 Norte 0 963.6 -0.4 48
2019-03-26 05:00:00 10.1 7 Norte 17 Noroeste 0 963.7 -0.2 47
2019-03-26 04:00:00 9.5 3 Noroeste 14 Noroeste 0 963.7 -0.5 52
2019-03-26 03:00:00 10.4 5 Sudoeste 13 Oeste 0 964 -0.4 48
2019-03-26 02:00:00 12.4 5 Noroeste 18 Nordeste 0 963.9 -0.6 41
2019-03-26 01:00:00 13.1 3 Sudeste 13 Nordeste 0 964.2 0 38
2019-03-26 00:00:00 14.1 4 Este 23 Nordeste 0 964.4 0.4 34
2019-03-25 23:00:00 15.5 9 Nordeste 31 Nordeste 0 964.5 0.8 29
2019-03-25 22:00:00 16.8 16 Nordeste 39 Nordeste 0 964.2 0.5 26
2019-03-25 21:00:00 17.3 8 Nordeste 15 Nordeste 0 964 0.2 33
2019-03-25 20:00:00 18.8 7 Nordeste 28 Nordeste 0 963.7 -0.5 30
2019-03-25 19:00:00 21 17 Nordeste 38 Nordeste 0 963.7 -1.1 24
2019-03-25 18:00:00 21.8 17 Norte 38 Nordeste 0 963.8 -1.9 22
2019-03-25 17:00:00 22.3 19 Nordeste -- -- 0 964.2 -2.5 20
2019-03-25 16:00:00 22.1 24 Nordeste 41 Nordeste 0 964.8 -2.8 20
2019-03-25 15:00:00 21.9 20 Nordeste 42 Nordeste 0 965.7 -2.7 22
2019-03-25 14:00:00 21.2 19 Nordeste 40 Nordeste 0 966.7 -2 24
2019-03-25 13:00:00 20.1 18 Nordeste 30 Nordeste 0 967.6 -1.2 32
2019-03-25 12:00:00 18.1 13 Nordeste 23 Nordeste 0 968.4 -0.1 40
2019-03-25 11:00:00 16.4 9 Nordeste 19 Este 0 968.7 0.5 43
2019-03-25 10:00:00 13.7 8 Norte 12 Norte 0 968.8 0.9 51
2019-03-25 09:00:00 11.2 3 Sudoeste 15 Nordeste 0 968.5 0.8 62
2019-03-25 08:00:00 9.2 9 Este 15 Este 0 968.2 0.8 61
2019-03-25 07:00:00 6.4 6 Sudoeste 11 Sudoeste 0 967.9 0.5 75
2019-03-25 06:00:00 6.5 8 Sudoeste 10 Sudoeste 0 967.7 -0.2 75
2019-03-25 05:00:00 7.6 4 Sudoeste 11 Sudoeste 0 967.4 -0.8 70
2019-03-25 04:00:00 8.4 8 Sur 12 Sur 0 967.4 -0.9 67
2019-03-25 03:00:00 8.3 8 Sur 10 Sur 0 967.9 -0.3 68
2019-03-25 02:00:00 8.5 6 Sudoeste 10 Sur 0 968.2 -0.2 68
2019-03-25 01:00:00 9.4 7 Sudoeste 9 Sur 0 968.3 -0.2 66
2019-03-25 00:00:00 10 7 Sur 11 Sur 0 968.2 0 64
2019-03-24 23:00:00 11.2 6 Sur 10 Sur 0 968.4 0.6 60
2019-03-24 22:00:00 12.2 6 Sudoeste 8 Sudoeste 0 968.5 1 59
2019-03-24 21:00:00 15.1 5 Sur 8 Sur 0 968.2 0.8 48
2019-03-24 20:00:00 18.3 5 Sudeste 20 Nordeste 0 967.8 0.3 37
2019-03-24 19:00:00 19.9 10 Este 23 Este 0 967.5 -0.3 33
2019-03-24 18:00:00 20.4 12 Este 32 Este 0 967.4 -0.7 31
2019-03-24 17:00:00 20.5 19 Este 35 Nordeste 0 967.5 -1.2 32
2019-03-24 16:00:00 20 19 Este 35 Nordeste 0 967.8 -1.3 34
2019-03-24 15:00:00 19.5 17 Este 38 Este 0 968.1 -1.4 33
2019-03-24 14:00:00 18.9 19 Este 35 Nordeste 0 968.7 -1.2 36
2019-03-24 13:00:00 18 21 Este 42 Este 0 969.1 -0.6 39
2019-03-24 12:00:00 16.4 22 Nordeste 44 Nordeste 0 969.5 -0.1 44
2019-03-24 11:00:00 15.7 23 Este 41 Este 0 969.9 0.6 43
2019-03-24 10:00:00 13.9 16 Este 30 Este 0 969.7 0.9 53
2019-03-24 09:00:00 11.2 9 Nordeste 15 Nordeste 0 969.6 1 61
2019-03-24 08:00:00 9.5 5 Este 15 Este 0 969.3 0.8 66
2019-03-24 07:00:00 9.3 4 Este 9 Este 0 968.8 0 66
2019-03-24 06:00:00 10.2 6 Este 13 Sudeste 0 968.6 -0.3 63
2019-03-24 05:00:00 11.2 8 Sudeste 17 Este 0 968.5 -0.4 60
2019-03-24 04:00:00 11.3 11 Este 19 Este 0 968.8 -0.2 59
2019-03-24 03:00:00 12.5 13 Este 23 Este 0 968.9 -0.1 54
2019-03-24 02:00:00 13.3 14 Sudeste 29 Sudeste 0 968.9 -0.1 50
2019-03-24 01:00:00 14.2 16 Este 30 Este 0 969 0.2 48
2019-03-24 00:00:00 14.8 16 Este 27 Este 0 969 0.6 45
2019-03-23 23:00:00 16 13 Este 23 Este 0 969 0.7 42
2019-03-23 22:00:00 16 7 Este 14 Este 0 968.8 0.7 41
2019-03-23 21:00:00 16 2 Nordeste 11 Nordeste 0 968.4 0.5 41
2019-03-23 20:00:00 17 7 Nordeste 31 Nordeste 0 968.3 0.3 38
2019-03-23 19:00:00 18.9 21 Nordeste 33 Nordeste 0 968.1 -0.4 34
2019-03-23 18:00:00 19.4 16 Nordeste 28 Este 0 967.9 -1.1 33
2019-03-23 17:00:00 19.7 10 Nordeste 32 Este 0 968 -1.8 34
2019-03-23 16:00:00 19.5 13 Nordeste 37 Nordeste 0 968.5 -2.2 35
2019-03-23 15:00:00 19.3 19 Nordeste 41 Nordeste 0 969 -2.4 36
2019-03-23 14:00:00 19.2 20 Nordeste 41 Nordeste 0 969.8 -2 35
2019-03-23 13:00:00 18.2 14 Este 32 Nordeste 0 970.7 -1.3 39
2019-03-23 12:00:00 16.6 15 Nordeste 31 Este 0 971.4 -0.5 44
2019-03-23 11:00:00 15.2 18 Este 26 Nordeste 0 971.8 0.1 45
2019-03-23 10:00:00 12.5 5 Nordeste 14 Este 0 972 0.5 51
2019-03-23 09:00:00 8.1 3 Sudeste 8 Sudoeste 0 971.9 0.7 65
2019-03-23 08:00:00 3.9 5 Sur 9 Sudeste 0 971.7 0.6 75
2019-03-23 07:00:00 4.5 4 Sur 10 Sudoeste 0 971.5 0.2 71
2019-03-23 06:00:00 4.6 4 Sudeste 13 Este 0 971.2 -0.7 69
2019-03-23 05:00:00 5.7 4 Sudeste 11 Sudoeste 0 971.1 -0.8 64
2019-03-23 04:00:00 8.1 7 Este 12 Este 0 971.3 -0.7 52
2019-03-23 03:00:00 9.3 6 Sudeste 17 Este 0 971.9 -0.2 49
2019-03-23 02:00:00 6 5 Sudeste 13 Este 0 971.9 -0.5 64
2019-03-23 01:00:00 6.4 6 Sudeste 13 Sudeste 0 972 -0.2 63
2019-03-23 00:00:00 6.7 5 Sur 8 Sudoeste 0 972.1 0.5 63
2019-03-22 23:00:00 7.7 6 Sudoeste 9 Sudoeste 0 972.4 1.1 60
2019-03-22 22:00:00 9.6 4 Sur 7 Este 0 972.2 1.1 54
2019-03-22 21:00:00 12.9 2 Sudeste 6 Este 0 971.6 0.6 40
2019-03-22 20:00:00 15.3 5 Este 19 Nordeste 0 971.3 0 33
2019-03-22 19:00:00 16.9 13 Nordeste 27 Nordeste 0 971.1 -0.7 29
2019-03-22 18:00:00 17.6 15 Nordeste 33 Este 0 971 -1.2 26
2019-03-22 17:00:00 17.8 16 Nordeste 32 Este 0 971.3 -1.6 25
2019-03-22 16:00:00 17.8 17 Nordeste 44 Nordeste 0 971.8 -1.7 26
2019-03-22 15:00:00 17.5 18 Nordeste 36 Nordeste 0 972.2 -1.7 26
2019-03-22 14:00:00 16.8 16 Nordeste 35 Nordeste 0 972.9 -1.2 28
2019-03-22 13:00:00 16.1 18 Este 35 Este 0 973.5 -0.3 28
2019-03-22 12:00:00 14.6 19 Este 33 Este 0 973.9 0.5 34
2019-03-22 11:00:00 13.6 17 Este 28 Nordeste 0 974.1 1.1 35
2019-03-22 10:00:00 11.4 6 Este 17 Este 0 973.8 1.3 44
2019-03-22 09:00:00 6.8 4 Este 9 Este 0 973.4 1.1 63
2019-03-22 08:00:00 3 5 Este 9 Este 0 973 0.7 72
2019-03-22 07:00:00 2.7 6 Sur 10 Sudoeste 0 972.5 0.1 73
2019-03-22 06:00:00 3.2 6 Sur 9 Sur 0 972.3 -0.1 72
2019-03-22 05:00:00 3.5 7 Sudoeste 9 Sudoeste 0 972.3 0 71
2019-03-22 04:00:00 4.3 5 Sur 9 Sudoeste 0 972.4 0 68
2019-03-22 03:00:00 5.2 5 Sur 12 Sur 0 972.4 -0.1 64
2019-03-22 02:00:00 5.3 9 Sudoeste 12 Sudoeste 0 972.3 -0.1 64
2019-03-22 01:00:00 5.8 8 Sudoeste 10 Sudoeste 0 972.4 0.3 62
2019-03-22 00:00:00 6.5 5 Sudoeste 10 Sur 0 972.5 0.5 59
2019-03-21 23:00:00 7.1 7 Sudoeste 10 Sudoeste 0 972.4 0.9 57
2019-03-21 22:00:00 8.4 6 Sudoeste 8 Sudoeste 0 972.1 0.7 54
2019-03-21 21:00:00 11.9 4 Sudeste 9 Sudeste 0 972 0.7 38
2019-03-21 20:00:00 14.2 7 Este 12 Nordeste 0 971.5 0.1 32
2019-03-21 19:00:00 16.3 10 Este 16 Nordeste 0 971.4 -0.3 28
2019-03-21 18:00:00 16.9 10 Nordeste 21 Nordeste 0 971.3 -1.1 25
2019-03-21 17:00:00 17.1 10 Nordeste 26 Nordeste 0 971.4 -1.8 28
2019-03-21 16:00:00 17.4 6 Nordeste 27 Este 0 971.7 -2.2 31
2019-03-21 15:00:00 16.6 10 Nordeste 34 Nordeste 0 972.4 -1.7 31
2019-03-21 14:00:00 15.8 8 Nordeste 23 Nordeste 0 973.2 -1 33
2019-03-21 13:00:00 14.5 8 Norte 27 Norte 0 973.9 -0.1 39
2019-03-21 12:00:00 13.9 9 Nordeste 23 Nordeste 0 974.1 0.4 41
2019-03-21 11:00:00 12.6 6 Nordeste 17 Nordeste 0 974.2 0.9 42
2019-03-21 10:00:00 9.6 5 Nordeste 10 Este 0 974 1.1 50
2019-03-21 09:00:00 6 3 Sudeste 9 Sur 0 973.7 1.2 70
2019-03-21 08:00:00 2.3 6 Sur 10 Sudoeste 0 973.3 1 77
2019-03-21 07:00:00 2.3 6 Sudoeste 11 Sudoeste 0 972.9 0.8 77
2019-03-21 06:00:00 3 8 Sur 11 Sudoeste 0 972.5 -0.1 74
2019-03-21 05:00:00 3.1 8 Sudoeste 10 Sudoeste 0 972.3 -0.3 74
2019-03-21 04:00:00 4.2 7 Sur 12 Sur 0 972.1 -0.8 69
2019-03-21 03:00:00 3.8 6 Sudoeste 10 Sudoeste 0 972.6 -0.3 72
2019-03-21 02:00:00 4.3 7 Sudoeste 10 Sudoeste 0 972.6 -0.4 71
2019-03-21 01:00:00 4.9 6 Sudoeste 10 Sudoeste 0 972.9 -0.1 69
2019-03-21 00:00:00 5.9 5 Sudoeste 7 Sudoeste 0 972.9 0.1 65
2019-03-20 23:00:00 8.1 4 Sudeste 12 Este 0 973 0.6 56
2019-03-20 22:00:00 11.1 6 Sudeste 11 Este 0 973 0.8 43
2019-03-20 21:00:00 12.3 10 Este 21 Sudeste 0 972.8 0.9 40
2019-03-20 20:00:00 12.8 9 Este 17 Este 0 972.4 0.5 40
2019-03-20 19:00:00 14.8 10 Este 25 Nordeste 0 972.2 -0.1 35
2019-03-20 18:00:00 15.4 15 Nordeste 32 Norte 0 971.9 -0.9 33
2019-03-20 17:00:00 15.5 13 Norte 33 Nordeste 0 971.9 -1.7 37
2019-03-20 16:00:00 15.1 15 Norte 45 Nordeste 0 972.3 -1.8 35
2019-03-20 15:00:00 14.7 16 Nordeste 40 Nordeste 0 972.8 -1.7 37
2019-03-20 14:00:00 14.2 23 Nordeste -- -- 0 973.6 -1.2 35
2019-03-20 13:00:00 13.3 19 Nordeste 39 Nordeste 0 974.1 -0.7 36
2019-03-20 12:00:00 12.7 15 Nordeste 33 Nordeste 0 974.5 -0.1 42
2019-03-20 11:00:00 11.7 9 Nordeste 21 Este 0 974.8 1 46
2019-03-20 10:00:00 9.5 12 Nordeste 23 Este 0 974.8 1.5 53
2019-03-20 09:00:00 8.4 4 Nordeste 9 Este 0 974.6 1.6 59
2019-03-20 08:00:00 4 3 Sudeste 12 Nordeste 0 973.8 0.7 71
2019-03-20 07:00:00 4.1 4 Sur 10 Nordeste 0 973.3 0 71
2019-03-20 06:00:00 7.5 7 Este 23 Nordeste 0 973 -0.5 57
2019-03-20 05:00:00 8.6 11 Nordeste 19 Nordeste 0 973.1 -0.2 53
2019-03-20 04:00:00 5.5 4 Sur 11 Sudoeste 0 973.3 -0.2 67
2019-03-20 03:00:00 7.9 3 Sur 13 Este 0 973.5 0 58
2019-03-20 02:00:00 9.3 7 Este 14 Este 0 973.3 0.3 51
2019-03-20 01:00:00 9.5 5 Sudeste 19 Nordeste 0 973.5 1.1 51
2019-03-20 00:00:00 11.4 11 Nordeste 42 Nordeste 0 973.5 1.4 45
2019-03-19 23:00:00 12.4 16 Nordeste 42 Norte 0 973 1.4 42
2019-03-19 22:00:00 13.3 20 Nordeste 33 Nordeste 0 972.4 1.2 40
2019-03-19 21:00:00 13.1 12 Nordeste 25 Nordeste 0 972.1 1.1 42
2019-03-19 20:00:00 14.6 12 Nordeste 23 Nordeste 0 971.6 0.5 39
2019-03-19 19:00:00 16.5 12 Nordeste 27 Este 0 971.2 -0.1 37
2019-03-19 18:00:00 17 14 Nordeste 33 Nordeste 0 971 -0.5 35
2019-03-19 17:00:00 17.1 14 Nordeste 35 Nordeste 0 971.1 -1.2 34
2019-03-19 16:00:00 16.7 13 Nordeste 30 Norte 0 971.3 -1.2 37
2019-03-19 15:00:00 16.6 17 Norte 30 Nordeste 0 971.5 -1.5 36
2019-03-19 14:00:00 16.4 13 Norte 27 Norte 0 972.3 -0.7 36
2019-03-19 13:00:00 15.3 12 Nordeste 27 Este 0 972.5 -0.4 36
2019-03-19 12:00:00 14.4 15 Este 28 Este 0 973 0.5 39
2019-03-19 11:00:00 12.1 6 Norte 21 Este 0 973 1.1 42
2019-03-19 10:00:00 11.2 6 Nordeste 14 Nordeste 0 972.9 1.7 45
2019-03-19 09:00:00 7.9 0 Calma 9 Sudoeste 0 972.5 1.6 64
2019-03-19 08:00:00 3.2 5 Sudoeste 10 Sudoeste 0 971.9 0.8 74
2019-03-19 07:00:00 3.2 5 Sudoeste 10 Sudoeste 0 971.2 -0.2 74
2019-03-19 06:00:00 3.5 6 Sur 11 Sur 0 970.9 -1 73
2019-03-19 05:00:00 4.6 5 Sur 13 Sudoeste 0 971.1 -0.7 68
2019-03-19 04:00:00 4 6 Sudoeste 10 Oeste 0 971.4 -0.6 73
2019-03-19 03:00:00 4.6 4 Oeste 10 Sudoeste 0 971.9 -0.2 70
2019-03-19 02:00:00 4.7 5 Sur 9 Sudoeste 0 971.8 -0.1 71
2019-03-19 01:00:00 5.5 6 Sur 9 Sudoeste 0 972 0.3 68
2019-03-19 00:00:00 6.3 5 Sur 12 Sudoeste 0 972.1 0.7 66